Weather at Birds Edge Airstrip

Public forecast

Using degrees Celsius for public forecast. Weather courtesy of forecast.io.

Closest aviation weather report (METAR) to Birds Edge Airstrip

Closest report is Leeds Bradford Airport, 18.0 nm (33.3 km) N. Retrieved 2020/11/28 15:20 UTC (19 minutes ago):

EGNM 281520Z 04006KT 2500 -RADZ BR FEW003 BKN004 05/05 Q1021

Closest aviation forecast (TAF) to Birds Edge Airstrip

Closest forecast is Leeds Bradford Airport, 18.0 nm (33.3 km) N. Retrieved 2020/11/28 12:00 UTC (4 hours ago):

TAF EGNM 281059Z 2812/2912 VRB03KT 7000 BKN007 TEMPO 2812/2821 3000 RADZ BR BKN004 PROB30 2815/2824 0700 FG BKN001 TEMPO 2821/2912 2000 BR BKN002 PROB30 TEMPO 2821/2910 RADZ TEMPO 2900/2910 0300 FG VV///